createdAt,value
2022-07-26T00:04:24.220Z,11.70
2022-07-26T00:10:17.281Z,11.80
2022-07-26T00:16:19.082Z,12.27
2022-07-26T00:22:30.267Z,12.30
2022-07-26T00:28:23.316Z,12.83
2022-07-26T00:34:17.747Z,7.30
2022-07-26T00:40:12.072Z,10.37
2022-07-26T00:46:10.943Z,11.23
2022-07-26T00:52:11.369Z,9.43
2022-07-26T00:58:06.331Z,8.10
2022-07-26T01:03:59.344Z,10.90
2022-07-26T01:10:00.871Z,10.40
2022-07-26T01:16:01.446Z,8.63
2022-07-26T01:21:58.598Z,9.83
2022-07-26T01:27:51.561Z,5.00
2022-07-26T01:33:44.652Z,6.40
2022-07-26T01:39:49.205Z,8.60
2022-07-26T01:45:42.217Z,4.27
2022-07-26T01:51:41.152Z,9.50
2022-07-26T01:57:36.595Z,6.20
2022-07-26T02:03:29.625Z,9.43
2022-07-26T02:09:22.653Z,8.90
2022-07-26T02:15:17.986Z,5.77
2022-07-26T02:21:11.306Z,7.00
2022-07-26T02:27:07.196Z,8.07
2022-07-26T02:33:01.576Z,10.57
2022-07-26T02:38:56.905Z,8.03
2022-07-26T02:44:49.918Z,6.83
2022-07-26T02:50:46.820Z,10.10
2022-07-26T02:56:40.054Z,11.33
2022-07-26T03:02:33.197Z,9.80
2022-07-26T03:08:27.682Z,7.90
2022-07-26T03:14:22.886Z,10.30
2022-07-26T03:20:15.989Z,9.77
2022-07-26T03:26:10.518Z,9.73
2022-07-26T03:32:03.502Z,10.17
2022-07-26T03:37:56.573Z,8.83
2022-07-26T03:43:50.917Z,5.30
2022-07-26T03:49:46.469Z,11.10
2022-07-26T03:55:57.609Z,9.80
2022-07-26T04:01:52.410Z,6.23
2022-07-26T04:07:53.169Z,7.87
2022-07-26T04:13:49.757Z,10.70
2022-07-26T04:19:44.166Z,11.10
2022-07-26T04:25:39.420Z,7.90
2022-07-26T04:31:34.250Z,10.50
2022-07-26T04:37:32.885Z,6.87
2022-07-26T04:43:26.150Z,14.63
2022-07-26T04:49:19.261Z,11.30
2022-07-26T04:55:13.851Z,13.60
2022-07-26T05:01:10.916Z,12.27
2022-07-26T05:07:05.360Z,16.13
2022-07-26T05:12:59.970Z,12.23
2022-07-26T05:18:55.992Z,11.07
2022-07-26T05:24:59.475Z,9.67
2022-07-26T05:30:54.132Z,17.80
2022-07-26T05:36:57.587Z,20.60
2022-07-26T05:42:53.096Z,10.97
2022-07-26T05:48:47.591Z,9.10
2022-07-26T05:54:41.434Z,2.50
2022-07-26T06:00:34.889Z,4.27
2022-07-26T06:12:36.274Z,3.90
2022-07-26T06:18:29.323Z,4.93
2022-07-26T06:24:26.233Z,2.83
2022-07-26T06:30:19.353Z,3.50
2022-07-26T06:36:12.573Z,4.13
2022-07-26T06:42:07.337Z,5.43
2022-07-26T06:48:08.781Z,3.33
2022-07-26T06:54:01.886Z,4.53
2022-07-26T07:00:01.350Z,4.80
2022-07-26T07:05:54.418Z,5.80
2022-07-26T07:12:00.356Z,8.27
2022-07-26T07:18:13.734Z,5.27
2022-07-26T07:24:08.222Z,4.03
2022-07-26T07:30:01.587Z,3.47
2022-07-26T07:35:58.478Z,2.63
2022-07-26T07:41:51.617Z,4.73
2022-07-26T07:47:58.681Z,3.27
2022-07-26T07:53:56.620Z,2.83
2022-07-26T07:59:50.423Z,3.10
2022-07-26T08:05:43.777Z,1.20
2022-07-26T08:17:54.690Z,3.50
2022-07-26T08:23:50.162Z,3.57
2022-07-26T08:29:46.978Z,3.47
2022-07-26T08:35:42.432Z,4.50
2022-07-26T08:41:36.852Z,5.40
2022-07-26T08:47:35.484Z,1.40
2022-07-26T08:53:40.134Z,3.07
2022-07-26T08:59:36.370Z,3.53
2022-07-26T09:05:43.153Z,2.70
2022-07-26T09:11:36.208Z,3.37
2022-07-26T09:17:42.174Z,3.13
2022-07-26T09:23:44.850Z,1.63
2022-07-26T09:29:46.471Z,2.70
2022-07-26T09:35:50.543Z,3.13
2022-07-26T09:42:04.830Z,4.30
2022-07-26T09:48:01.691Z,1.77
2022-07-26T09:54:03.432Z,4.67
2022-07-26T10:00:03.181Z,1.60
2022-07-26T10:06:03.821Z,1.53
2022-07-26T10:12:00.898Z,3.23
2022-07-26T10:17:55.496Z,3.30
2022-07-26T10:23:49.892Z,3.60
2022-07-26T10:29:46.167Z,2.00
2022-07-26T10:35:44.893Z,4.00
2022-07-26T10:41:41.220Z,3.03
2022-07-26T10:47:35.498Z,2.80
2022-07-26T10:53:30.644Z,3.00
2022-07-26T10:59:54.970Z,1.73
2022-07-26T11:05:46.385Z,3.03
2022-07-26T11:11:46.495Z,2.37
2022-07-26T11:17:39.928Z,0.80
2022-07-26T11:23:35.252Z,4.43
2022-07-26T11:29:40.652Z,2.23
2022-07-26T11:35:34.766Z,4.27
2022-07-26T11:41:34.614Z,4.40
2022-07-26T11:47:29.503Z,3.60
2022-07-26T11:53:25.020Z,3.37
2022-07-26T11:59:19.372Z,4.87
2022-07-26T12:05:22.399Z,5.13
2022-07-26T12:11:16.966Z,5.40
2022-07-26T12:17:15.406Z,10.70
2022-07-26T12:23:09.820Z,6.53
2022-07-26T12:29:18.663Z,6.30
2022-07-26T12:35:14.841Z,8.00
2022-07-26T12:41:10.731Z,7.93
2022-07-26T12:47:07.173Z,4.27
2022-07-26T12:53:02.809Z,3.57
2022-07-26T12:59:01.962Z,2.80
2022-07-26T13:05:00.035Z,5.30
2022-07-26T13:10:58.152Z,5.60
2022-07-26T13:17:03.782Z,6.57
2022-07-26T13:23:01.346Z,5.00
2022-07-26T13:28:54.680Z,4.43
2022-07-26T13:34:49.086Z,5.13
2022-07-26T13:40:42.756Z,4.20
2022-07-26T13:46:41.947Z,5.23
2022-07-26T13:52:37.138Z,3.47
2022-07-26T13:58:30.217Z,3.90
2022-07-26T14:04:24.303Z,6.87
2022-07-26T14:10:26.807Z,3.50
2022-07-26T14:16:20.813Z,4.03
2022-07-26T14:22:13.960Z,4.90
2022-07-26T14:28:10.933Z,4.00
2022-07-26T14:34:04.030Z,3.40
2022-07-26T14:39:59.972Z,3.70
2022-07-26T14:45:54.563Z,6.20
2022-07-26T14:51:48.087Z,3.93
2022-07-26T14:57:42.609Z,3.63
2022-07-26T15:03:37.002Z,3.10
2022-07-26T15:09:30.945Z,3.23
2022-07-26T15:15:24.146Z,5.13
2022-07-26T15:21:18.689Z,3.83
2022-07-26T15:27:11.791Z,5.33
2022-07-26T15:33:04.863Z,4.60
2022-07-26T15:39:15.935Z,2.97
2022-07-26T15:45:15.231Z,4.40
2022-07-26T15:51:09.707Z,4.07
2022-07-26T15:57:06.612Z,3.43
2022-07-26T16:02:59.708Z,3.47
2022-07-26T16:09:15.563Z,3.47
2022-07-26T16:15:12.079Z,7.33
2022-07-26T16:21:05.335Z,6.30
2022-07-26T16:26:58.793Z,5.93
2022-07-26T16:32:53.309Z,4.60
2022-07-26T16:38:51.419Z,5.00
2022-07-26T16:44:46.822Z,3.53
2022-07-26T16:50:41.535Z,3.10
2022-07-26T16:56:35.094Z,2.87
2022-07-26T17:02:28.382Z,4.53
2022-07-26T17:08:24.731Z,4.37
2022-07-26T17:14:18.040Z,7.00
2022-07-26T17:20:11.996Z,3.67
2022-07-26T17:26:07.719Z,4.27
2022-07-26T17:32:00.798Z,3.80
2022-07-26T17:37:55.949Z,1.60
2022-07-26T17:43:53.857Z,3.27
2022-07-26T17:49:49.709Z,3.47
2022-07-26T17:55:43.103Z,5.60
2022-07-26T18:01:37.463Z,4.83
2022-07-26T18:07:43.360Z,2.33
2022-07-26T18:13:39.657Z,3.50
2022-07-26T18:19:34.018Z,2.03
2022-07-26T18:25:27.055Z,2.83
2022-07-26T18:31:20.525Z,6.50
2022-07-26T18:37:20.129Z,4.97
2022-07-26T18:43:13.080Z,1.90
2022-07-26T18:49:09.761Z,6.67
2022-07-26T18:55:17.611Z,2.80
2022-07-26T19:01:10.882Z,2.47
2022-07-26T19:07:17.960Z,1.10
2022-07-26T19:13:14.816Z,2.80
2022-07-26T19:19:11.357Z,6.73
2022-07-26T19:25:06.161Z,1.23
2022-07-26T19:31:25.953Z,2.90
2022-07-26T19:37:21.262Z,2.73
2022-07-26T19:43:16.120Z,4.37
2022-07-26T19:49:17.740Z,2.63
2022-07-26T19:55:11.232Z,3.47
2022-07-26T20:01:12.365Z,3.13
2022-07-26T20:07:09.252Z,4.93
2022-07-26T20:13:02.264Z,2.20
2022-07-26T20:18:55.261Z,5.10
2022-07-26T20:24:58.423Z,6.47
2022-07-26T20:30:51.692Z,3.53
2022-07-26T20:36:49.650Z,5.80
2022-07-26T20:42:44.395Z,4.43
2022-07-26T20:48:38.202Z,2.13
2022-07-26T20:54:41.651Z,4.23
2022-07-26T21:00:36.122Z,2.00
2022-07-26T21:06:29.640Z,4.67
2022-07-26T21:12:22.806Z,3.70
2022-07-26T21:18:17.242Z,4.63
2022-07-26T21:24:10.602Z,4.20
2022-07-26T21:30:11.417Z,4.30
2022-07-26T21:36:05.980Z,3.43
2022-07-26T21:41:59.016Z,4.67
2022-07-26T21:47:53.944Z,7.00
2022-07-26T21:53:56.238Z,6.60
2022-07-26T21:59:49.393Z,3.97
2022-07-26T22:05:43.408Z,5.00
2022-07-26T22:11:39.915Z,2.47
2022-07-26T22:17:33.054Z,3.37
2022-07-26T22:23:30.805Z,2.77
2022-07-26T22:29:37.904Z,4.37
2022-07-26T22:35:36.507Z,2.77
2022-07-26T22:41:51.479Z,4.60
2022-07-26T22:47:55.568Z,4.20
2022-07-26T22:53:49.581Z,3.83
2022-07-26T22:59:43.366Z,5.33
2022-07-26T23:05:47.578Z,2.87
2022-07-26T23:11:40.881Z,4.93
2022-07-26T23:17:33.971Z,8.00
2022-07-26T23:23:36.086Z,5.20
2022-07-26T23:29:29.197Z,3.93
2022-07-26T23:35:31.506Z,10.90
2022-07-26T23:41:26.883Z,6.83
2022-07-26T23:47:25.939Z,4.67
2022-07-26T23:53:19.081Z,5.17
2022-07-26T23:59:23.761Z,6.43
